createdAt,value
2022-09-24T00:01:44.450Z,47.20
2022-09-24T00:03:51.984Z,47.20
2022-09-24T00:05:53.610Z,47.30
2022-09-24T00:07:55.235Z,47.30
2022-09-24T00:09:56.840Z,47.30
2022-09-24T00:11:58.833Z,47.20
2022-09-24T00:14:00.773Z,47.30
2022-09-24T00:16:05.135Z,47.30
2022-09-24T00:18:08.084Z,47.30
2022-09-24T00:20:09.816Z,47.30
2022-09-24T00:22:11.421Z,47.30
2022-09-24T00:24:33.830Z,47.30
2022-09-24T00:26:51.445Z,47.30
2022-09-24T00:28:53.082Z,47.30
2022-09-24T00:30:58.287Z,47.30
2022-09-24T00:32:59.962Z,47.40
2022-09-24T00:35:01.600Z,47.30
2022-09-24T00:37:03.379Z,47.20
2022-09-24T00:39:05.820Z,47.30
2022-09-24T00:41:07.562Z,47.30
2022-09-24T00:43:36.194Z,47.30
2022-09-24T00:45:37.810Z,47.30
2022-09-24T00:47:41.333Z,47.30
2022-09-24T00:49:44.342Z,47.30
2022-09-24T00:51:49.027Z,47.30
2022-09-24T00:53:55.280Z,47.30
2022-09-24T00:55:57.149Z,47.40
2022-09-24T00:58:03.352Z,47.40
2022-09-24T01:00:07.255Z,47.40
2022-09-24T01:02:08.996Z,47.40
2022-09-24T01:04:11.446Z,47.40
2022-09-24T01:06:13.825Z,47.40
2022-09-24T01:08:17.264Z,47.50
2022-09-24T01:10:48.180Z,47.40
2022-09-24T01:13:02.252Z,47.40
2022-09-24T01:15:10.966Z,47.30
2022-09-24T01:17:27.547Z,47.30
2022-09-24T01:19:54.644Z,47.40
2022-09-24T01:22:02.372Z,47.50
2022-09-24T01:24:45.561Z,47.50
2022-09-24T01:27:15.357Z,47.60
2022-09-24T01:29:32.395Z,47.70
2022-09-24T01:31:49.089Z,47.60
2022-09-24T01:33:53.361Z,47.60
2022-09-24T01:35:59.439Z,47.60
2022-09-24T01:38:06.815Z,47.60
2022-09-24T01:40:10.666Z,48.20
2022-09-24T01:42:13.524Z,47.70
2022-09-24T01:44:18.341Z,47.60
2022-09-24T01:46:22.706Z,47.60
2022-09-24T01:48:25.277Z,47.60
2022-09-24T01:50:30.744Z,47.70
2022-09-24T01:52:40.883Z,47.70
2022-09-24T01:54:50.274Z,47.70
2022-09-24T01:57:00.575Z,47.70
2022-09-24T01:59:10.153Z,47.70
2022-09-24T02:01:17.320Z,47.70
2022-09-24T02:03:32.915Z,47.60
2022-09-24T02:05:44.035Z,47.70
2022-09-24T02:07:50.746Z,47.70
2022-09-24T02:09:52.400Z,47.60
2022-09-24T02:11:55.541Z,47.60
2022-09-24T02:14:00.684Z,47.60
2022-09-24T02:16:04.575Z,47.60
2022-09-24T02:18:10.779Z,47.70
2022-09-24T02:20:16.480Z,47.60
2022-09-24T02:22:18.294Z,47.60
2022-09-24T02:24:24.396Z,47.60
2022-09-24T02:26:26.016Z,47.60
2022-09-24T02:28:28.265Z,47.70
2022-09-24T02:30:39.342Z,47.60
2022-09-24T02:32:41.987Z,47.70
2022-09-24T02:34:51.643Z,47.70
2022-09-24T02:37:00.113Z,47.70
2022-09-24T02:39:03.000Z,47.50
2022-09-24T02:41:08.009Z,47.60
2022-09-24T02:43:09.604Z,47.60
2022-09-24T02:45:12.332Z,47.50
2022-09-24T02:47:14.058Z,47.50
2022-09-24T02:49:15.731Z,47.50
2022-09-24T02:51:17.317Z,47.50
2022-09-24T02:53:19.017Z,47.70
2022-09-24T02:55:21.442Z,47.60
2022-09-24T02:57:23.031Z,47.60
2022-09-24T02:59:24.669Z,47.60
2022-09-24T03:01:26.303Z,47.70
2022-09-24T03:03:28.446Z,47.60
2022-09-24T03:05:30.084Z,47.60
2022-09-24T03:07:31.824Z,47.60
2022-09-24T03:09:33.442Z,47.50
2022-09-24T03:11:35.656Z,47.60
2022-09-24T03:13:38.531Z,47.60
2022-09-24T03:15:40.245Z,47.60
2022-09-24T03:17:41.931Z,47.50
2022-09-24T03:19:43.538Z,47.50
2022-09-24T03:21:45.136Z,47.50
2022-09-24T03:23:46.897Z,47.60
2022-09-24T03:25:48.519Z,47.50
2022-09-24T03:27:50.128Z,47.60
2022-09-24T03:30:10.643Z,47.60
2022-09-24T03:32:12.225Z,47.60
2022-09-24T03:34:13.849Z,47.50
2022-09-24T03:36:17.285Z,47.60
2022-09-24T03:38:18.897Z,47.60
2022-09-24T03:40:20.696Z,47.60
2022-09-24T03:42:22.334Z,47.50
2022-09-24T03:44:23.949Z,47.60
2022-09-24T03:46:28.380Z,47.50
2022-09-24T03:48:30.201Z,47.50
2022-09-24T03:50:32.080Z,47.50
2022-09-24T03:52:33.929Z,47.50
2022-09-24T03:54:35.577Z,47.50
2022-09-24T03:56:37.168Z,47.50
2022-09-24T03:58:39.908Z,47.50
2022-09-24T04:00:42.376Z,47.60
2022-09-24T04:02:45.001Z,47.60
2022-09-24T04:04:46.700Z,47.60
2022-09-24T04:06:48.319Z,47.60
2022-09-24T04:08:49.956Z,47.60
2022-09-24T04:10:51.723Z,47.50
2022-09-24T04:12:53.432Z,47.60
2022-09-24T04:14:55.232Z,47.70
2022-09-24T04:16:58.847Z,47.60
2022-09-24T04:19:00.487Z,48.10
2022-09-24T04:21:02.104Z,47.80
2022-09-24T04:23:04.711Z,48.20
2022-09-24T04:25:10.225Z,48.90
2022-09-24T04:27:14.471Z,48.30
2022-09-24T04:29:16.564Z,48.50
2022-09-24T04:31:18.321Z,48.40
2022-09-24T04:33:20.069Z,48.40
2022-09-24T04:35:23.279Z,48.30
2022-09-24T04:37:25.303Z,48.30
2022-09-24T04:39:27.716Z,48.90
2022-09-24T04:41:29.563Z,48.20
2022-09-24T04:43:32.222Z,48.30
2022-09-24T04:45:34.237Z,48.70
2022-09-24T04:47:36.986Z,48.20
2022-09-24T04:49:38.629Z,48.60
2022-09-24T04:51:40.460Z,48.50
2022-09-24T04:53:42.078Z,48.20
2022-09-24T04:55:44.482Z,48.30
2022-09-24T04:57:46.357Z,48.30
2022-09-24T04:59:47.976Z,48.40
2022-09-24T05:01:49.738Z,48.30
2022-09-24T05:03:51.497Z,48.40
2022-09-24T05:05:53.088Z,48.90
2022-09-24T05:07:56.866Z,47.90
2022-09-24T05:09:58.540Z,48.00
2022-09-24T05:12:00.239Z,48.00
2022-09-24T05:14:01.910Z,48.00
2022-09-24T05:16:03.689Z,48.00
2022-09-24T05:18:06.192Z,48.00
2022-09-24T05:20:11.167Z,47.90
2022-09-24T05:22:12.853Z,47.80
2022-09-24T05:24:14.769Z,47.70
2022-09-24T05:26:34.979Z,47.70
2022-09-24T05:28:38.116Z,47.70
2022-09-24T05:30:39.725Z,47.80
2022-09-24T05:32:42.036Z,47.60
2022-09-24T05:34:44.561Z,47.70
2022-09-24T05:36:46.269Z,47.60
2022-09-24T05:38:47.865Z,47.80
2022-09-24T05:40:50.685Z,47.90
2022-09-24T05:42:59.412Z,48.00
2022-09-24T05:45:00.992Z,47.80
2022-09-24T05:47:02.695Z,47.60
2022-09-24T05:49:04.580Z,47.90
2022-09-24T05:51:06.889Z,47.50
2022-09-24T05:53:09.471Z,47.50
2022-09-24T05:55:11.154Z,47.70
2022-09-24T05:57:15.531Z,47.20
2022-09-24T05:59:17.162Z,47.20
2022-09-24T06:01:18.829Z,47.20
2022-09-24T06:03:21.023Z,47.10
2022-09-24T06:05:23.353Z,47.50
2022-09-24T06:07:25.037Z,47.10
2022-09-24T06:09:26.643Z,47.50
2022-09-24T06:11:29.502Z,47.50
2022-09-24T06:13:33.543Z,47.40
2022-09-24T06:15:36.036Z,47.50
2022-09-24T06:17:37.642Z,47.60
2022-09-24T06:19:39.295Z,47.50
2022-09-24T06:21:40.942Z,47.60
2022-09-24T06:23:42.743Z,47.50
2022-09-24T06:25:49.932Z,47.50
2022-09-24T06:28:01.173Z,47.40
2022-09-24T06:30:02.963Z,47.20
2022-09-24T06:32:04.662Z,47.00
2022-09-24T06:34:06.337Z,47.40
2022-09-24T06:36:08.550Z,47.30
2022-09-24T06:38:15.640Z,48.00
2022-09-24T06:40:17.584Z,47.80
2022-09-24T06:42:20.724Z,47.70
2022-09-24T06:44:22.400Z,48.00
2022-09-24T06:46:25.723Z,48.00
2022-09-24T06:48:28.656Z,48.40
2022-09-24T06:50:32.402Z,48.30
2022-09-24T06:52:34.193Z,48.30
2022-09-24T06:54:35.812Z,48.50
2022-09-24T06:56:37.396Z,48.00
2022-09-24T06:58:38.994Z,48.20
2022-09-24T07:00:41.495Z,48.30
2022-09-24T07:02:43.451Z,48.30
2022-09-24T07:04:45.052Z,48.00
2022-09-24T07:07:05.164Z,48.00
2022-09-24T07:09:06.819Z,48.00
2022-09-24T07:11:08.932Z,47.80
2022-09-24T07:13:14.183Z,47.80
2022-09-24T07:15:15.853Z,47.90
2022-09-24T07:17:17.612Z,48.00
2022-09-24T07:19:19.201Z,48.00
2022-09-24T07:21:20.785Z,48.10
2022-09-24T07:23:23.470Z,47.70
2022-09-24T07:25:25.121Z,47.90
2022-09-24T07:27:29.468Z,47.60
2022-09-24T07:29:31.560Z,47.90
2022-09-24T07:31:33.593Z,47.90
2022-09-24T07:33:35.388Z,48.10
2022-09-24T07:35:39.143Z,48.00
2022-09-24T07:37:40.756Z,47.90
2022-09-24T07:39:43.266Z,48.10
2022-09-24T07:41:44.979Z,47.90
2022-09-24T07:43:46.908Z,47.90
2022-09-24T07:45:49.038Z,47.90
2022-09-24T07:48:01.204Z,47.80
2022-09-24T07:50:03.029Z,48.00
2022-09-24T07:52:04.742Z,48.00
2022-09-24T07:54:06.545Z,47.80
2022-09-24T07:56:08.156Z,48.00
2022-09-24T07:58:14.020Z,47.70
2022-09-24T08:00:17.686Z,47.80
2022-09-24T08:02:20.316Z,48.10
2022-09-24T08:04:22.398Z,47.90
2022-09-24T08:06:24.069Z,48.00
2022-09-24T08:08:25.963Z,47.90
2022-09-24T08:10:28.817Z,47.80
2022-09-24T08:12:30.434Z,47.80
2022-09-24T08:14:32.484Z,47.80
2022-09-24T08:16:34.476Z,47.80
2022-09-24T08:18:36.075Z,47.80
2022-09-24T08:20:38.781Z,47.60
2022-09-24T08:22:40.733Z,47.50
2022-09-24T08:24:43.261Z,47.70
2022-09-24T08:26:44.867Z,47.70
2022-09-24T08:28:49.316Z,47.60
2022-09-24T08:30:51.069Z,47.50
2022-09-24T08:32:52.768Z,47.50
2022-09-24T08:34:54.361Z,47.40
2022-09-24T08:36:56.799Z,47.60
2022-09-24T08:38:59.027Z,47.50
2022-09-24T08:41:12.913Z,47.50
2022-09-24T08:43:39.450Z,47.60
2022-09-24T08:46:06.686Z,47.60
2022-09-24T08:48:20.175Z,47.60
2022-09-24T08:50:27.310Z,47.60
2022-09-24T08:52:42.617Z,47.60
2022-09-24T08:54:45.511Z,47.50
2022-09-24T08:56:47.290Z,47.60
2022-09-24T08:59:21.413Z,47.60
2022-09-24T09:01:29.367Z,48.30
2022-09-24T09:03:39.001Z,47.60
2022-09-24T09:06:05.010Z,47.60
2022-09-24T09:08:42.448Z,47.60
2022-09-24T09:10:43.328Z,47.60
2022-09-24T09:12:57.919Z,47.60
2022-09-24T09:15:12.215Z,47.50
2022-09-24T09:17:36.358Z,47.60
2022-09-24T09:19:41.097Z,47.50
2022-09-24T09:21:46.721Z,47.50
2022-09-24T09:23:50.837Z,47.40
2022-09-24T09:25:55.955Z,47.40
2022-09-24T09:28:06.954Z,47.50
2022-09-24T09:30:16.349Z,47.50
2022-09-24T09:32:33.357Z,47.50
2022-09-24T09:34:49.928Z,47.50
2022-09-24T09:37:00.022Z,47.50
2022-09-24T09:39:28.349Z,47.50
2022-09-24T09:41:40.342Z,47.50
2022-09-24T09:43:41.998Z,47.50
2022-09-24T09:46:07.514Z,47.50
2022-09-24T09:48:16.417Z,47.60
2022-09-24T09:50:28.468Z,47.50
2022-09-24T09:52:34.221Z,47.50
2022-09-24T09:54:39.703Z,47.40
2022-09-24T09:56:47.723Z,47.60
2022-09-24T09:58:53.464Z,48.10
2022-09-24T10:01:08.826Z,47.90
2022-09-24T10:03:26.181Z,47.80
2022-09-24T10:05:28.813Z,47.80
2022-09-24T10:07:31.597Z,47.80
2022-09-24T10:09:34.361Z,47.80
2022-09-24T10:11:36.033Z,47.80
2022-09-24T10:13:37.657Z,47.80
2022-09-24T10:15:51.261Z,47.90
2022-09-24T10:17:55.208Z,47.80
2022-09-24T10:19:57.356Z,48.00
2022-09-24T10:22:08.405Z,47.50
2022-09-24T10:24:21.325Z,47.80
2022-09-24T10:26:42.433Z,48.00
2022-09-24T10:29:08.615Z,48.60
2022-09-24T10:31:31.779Z,47.50
2022-09-24T10:33:42.301Z,47.80
2022-09-24T10:35:43.908Z,48.00
2022-09-24T10:37:56.907Z,48.10
2022-09-24T10:40:13.754Z,48.00
2022-09-24T10:42:27.373Z,48.40
2022-09-24T10:44:38.425Z,49.00
2022-09-24T10:46:46.927Z,48.70
2022-09-24T10:48:54.625Z,48.70
2022-09-24T10:51:15.644Z,48.80
2022-09-24T10:53:39.475Z,48.90
2022-09-24T10:56:03.751Z,49.50
2022-09-24T10:58:53.320Z,49.00
2022-09-24T11:01:32.295Z,49.70
2022-09-24T11:03:43.022Z,49.00
2022-09-24T11:06:00.857Z,49.00
2022-09-24T11:08:17.385Z,49.00
2022-09-24T11:10:36.978Z,49.00
2022-09-24T11:13:16.292Z,49.00
2022-09-24T11:15:50.877Z,49.00
2022-09-24T11:18:30.114Z,49.00
2022-09-24T11:20:37.411Z,49.00
2022-09-24T11:23:23.909Z,49.00
2022-09-24T11:25:55.077Z,48.80
2022-09-24T11:28:18.054Z,48.90
2022-09-24T11:30:22.341Z,48.70
2022-09-24T11:32:39.017Z,48.70
2022-09-24T11:35:15.868Z,49.40
2022-09-24T11:37:17.411Z,48.80
2022-09-24T11:39:22.024Z,48.70
2022-09-24T11:41:35.107Z,48.70
2022-09-24T11:43:43.043Z,48.60
2022-09-24T11:46:21.332Z,48.70
2022-09-24T11:48:44.147Z,48.70
2022-09-24T11:50:48.001Z,48.50
2022-09-24T11:53:11.277Z,48.60
2022-09-24T11:55:23.596Z,48.60
2022-09-24T11:57:38.088Z,48.60
2022-09-24T12:00:21.124Z,48.70
2022-09-24T12:02:45.629Z,48.60
2022-09-24T12:04:55.618Z,48.50
2022-09-24T12:07:13.168Z,48.60
2022-09-24T12:09:45.754Z,48.70
2022-09-24T12:11:52.764Z,48.50
2022-09-24T12:14:17.421Z,48.50
2022-09-24T12:16:24.536Z,48.50
2022-09-24T12:18:36.177Z,48.50
2022-09-24T12:20:51.728Z,48.50
2022-09-24T12:23:01.674Z,48.50
2022-09-24T12:25:04.011Z,48.50
2022-09-24T12:27:16.191Z,48.50
2022-09-24T12:29:54.391Z,48.50
2022-09-24T12:32:54.719Z,48.50
2022-09-24T12:35:14.142Z,48.40
2022-09-24T12:37:20.141Z,48.50
2022-09-24T12:39:25.562Z,48.50
2022-09-24T12:41:33.774Z,48.40
2022-09-24T12:43:58.571Z,48.50
2022-09-24T12:46:06.142Z,48.50
2022-09-24T12:48:15.463Z,48.50
2022-09-24T12:50:24.665Z,48.50
2022-09-24T12:52:41.694Z,48.50
2022-09-24T12:54:44.230Z,48.60
2022-09-24T12:56:46.020Z,48.50
2022-09-24T12:58:49.379Z,48.50
2022-09-24T13:00:53.401Z,48.60
2022-09-24T13:02:56.172Z,48.50
2022-09-24T13:05:04.533Z,48.50
2022-09-24T13:07:34.289Z,49.20
2022-09-24T13:09:40.536Z,49.40
2022-09-24T13:11:42.424Z,48.70
2022-09-24T13:13:45.318Z,48.90
2022-09-24T13:16:02.058Z,48.80
2022-09-24T13:18:25.488Z,48.80
2022-09-24T13:20:27.284Z,48.90
2022-09-24T13:22:31.570Z,48.90
2022-09-24T13:24:48.177Z,48.90
2022-09-24T13:26:49.942Z,49.00
2022-09-24T13:29:01.416Z,49.10
2022-09-24T13:31:29.522Z,49.50
2022-09-24T13:33:39.550Z,50.00
2022-09-24T13:36:13.412Z,50.40
2022-09-24T13:38:23.886Z,50.20
2022-09-24T13:40:31.950Z,50.30
2022-09-24T13:42:58.431Z,49.80
2022-09-24T13:45:07.550Z,49.60
2022-09-24T13:47:22.937Z,49.70
2022-09-24T13:49:25.808Z,49.70
2022-09-24T13:51:31.296Z,50.10
2022-09-24T13:53:43.948Z,50.00
2022-09-24T13:55:55.642Z,50.00
2022-09-24T13:57:57.923Z,50.20
2022-09-24T14:00:12.637Z,50.30
2022-09-24T14:02:25.951Z,50.30
2022-09-24T14:04:28.187Z,50.00
2022-09-24T14:06:47.073Z,50.60
2022-09-24T14:08:49.110Z,50.20
2022-09-24T14:10:51.243Z,50.30
2022-09-24T14:13:02.831Z,50.20
2022-09-24T14:15:14.453Z,50.20
2022-09-24T14:17:16.105Z,50.10
2022-09-24T14:19:17.784Z,50.80
2022-09-24T14:21:28.647Z,50.70
2022-09-24T14:23:51.552Z,50.30
2022-09-24T14:25:54.363Z,50.50
2022-09-24T14:27:59.563Z,50.60
2022-09-24T14:30:04.923Z,51.10
2022-09-24T14:32:07.723Z,50.80
2022-09-24T14:34:24.231Z,50.70
2022-09-24T14:36:29.070Z,51.00
2022-09-24T14:38:35.683Z,50.90
2022-09-24T14:41:05.063Z,51.10
2022-09-24T14:43:32.408Z,51.30
2022-09-24T14:45:40.390Z,51.40
2022-09-24T14:47:42.013Z,51.30
2022-09-24T14:49:45.180Z,51.40
2022-09-24T14:51:59.692Z,51.10
2022-09-24T14:54:28.388Z,51.60
2022-09-24T14:56:33.007Z,52.20
2022-09-24T14:58:36.415Z,52.90
2022-09-24T15:00:49.667Z,52.40
2022-09-24T15:03:00.739Z,52.80
2022-09-24T15:05:06.543Z,52.60
2022-09-24T15:07:18.623Z,52.00
2022-09-24T15:09:25.876Z,52.80
2022-09-24T15:11:30.595Z,52.60
2022-09-24T15:13:37.685Z,52.70
2022-09-24T15:15:39.919Z,52.30
2022-09-24T15:17:41.560Z,52.20
2022-09-24T15:19:44.003Z,52.50
2022-09-24T15:22:05.917Z,52.60
2022-09-24T15:24:07.560Z,51.90
2022-09-24T15:26:09.507Z,51.70
2022-09-24T15:28:14.377Z,51.90
2022-09-24T15:30:21.216Z,51.80
2022-09-24T15:32:22.856Z,51.80
2022-09-24T15:34:25.528Z,51.70
2022-09-24T15:36:27.172Z,52.10
2022-09-24T15:38:28.822Z,52.10
2022-09-24T15:40:33.722Z,51.30
2022-09-24T15:42:35.399Z,51.40
2022-09-24T15:44:37.131Z,51.70
2022-09-24T15:46:38.765Z,51.60
2022-09-24T15:48:40.430Z,51.60
2022-09-24T15:50:45.267Z,52.50
2022-09-24T15:52:50.260Z,53.10
2022-09-24T15:55:00.611Z,50.70
2022-09-24T15:57:02.763Z,50.90
2022-09-24T15:59:13.224Z,50.90
2022-09-24T16:01:18.701Z,51.90
2022-09-24T16:03:25.180Z,52.90
2022-09-24T16:05:26.892Z,52.20
2022-09-24T16:07:28.514Z,50.70
2022-09-24T16:09:30.146Z,50.10
2022-09-24T16:11:31.961Z,50.80
2022-09-24T16:13:35.075Z,51.30
2022-09-24T16:15:37.278Z,51.50
2022-09-24T16:17:39.691Z,51.60
2022-09-24T16:19:41.312Z,52.00
2022-09-24T16:21:42.999Z,52.20
2022-09-24T16:23:44.695Z,52.30
2022-09-24T16:25:57.252Z,53.00
2022-09-24T16:27:59.078Z,53.20
2022-09-24T16:30:02.001Z,53.80
2022-09-24T16:32:03.704Z,54.00
2022-09-24T16:34:05.354Z,54.10
2022-09-24T16:36:08.253Z,54.10
2022-09-24T16:38:09.899Z,54.10
2022-09-24T16:40:12.148Z,54.20
2022-09-24T16:42:13.784Z,54.20
2022-09-24T16:44:15.537Z,54.30
2022-09-24T16:46:20.699Z,54.20
2022-09-24T16:48:22.653Z,54.20
2022-09-24T16:50:24.350Z,55.30
2022-09-24T16:52:25.994Z,54.00
2022-09-24T16:54:29.558Z,54.70
2022-09-24T16:56:31.629Z,55.50
2022-09-24T16:58:33.279Z,54.70
2022-09-24T17:00:34.888Z,55.00
2022-09-24T17:02:36.645Z,55.10
2022-09-24T17:04:39.726Z,55.20
2022-09-24T17:06:44.424Z,55.10
2022-09-24T17:09:04.648Z,55.40
2022-09-24T17:11:06.260Z,55.10
2022-09-24T17:13:07.828Z,55.30
2022-09-24T17:15:10.065Z,55.10
2022-09-24T17:17:11.693Z,55.30
2022-09-24T17:19:13.483Z,55.80
2022-09-24T17:21:15.239Z,55.10
2022-09-24T17:23:16.875Z,55.10
2022-09-24T17:25:18.548Z,55.20
2022-09-24T17:27:20.171Z,55.40
2022-09-24T17:29:26.490Z,55.10
2022-09-24T17:31:30.707Z,55.70
2022-09-24T17:33:43.439Z,55.30
2022-09-24T17:35:57.320Z,55.70
2022-09-24T17:37:59.071Z,55.20
2022-09-24T17:40:00.733Z,55.60
2022-09-24T17:42:02.473Z,55.30
2022-09-24T17:44:04.089Z,55.70
2022-09-24T17:46:14.678Z,54.90
2022-09-24T17:48:16.443Z,54.80
2022-09-24T17:50:18.291Z,55.00
2022-09-24T17:52:20.626Z,54.90
2022-09-24T17:54:24.083Z,55.20
2022-09-24T17:56:27.727Z,54.80
2022-09-24T17:58:29.371Z,54.90
2022-09-24T18:00:31.077Z,54.90
2022-09-24T18:02:32.794Z,54.70
2022-09-24T18:04:38.135Z,54.70
2022-09-24T18:06:41.490Z,54.70
2022-09-24T18:08:45.118Z,54.70
2022-09-24T18:10:46.732Z,54.60
2022-09-24T18:12:48.368Z,54.70
2022-09-24T18:14:49.943Z,54.60
2022-09-24T18:16:51.965Z,54.60
2022-09-24T18:18:53.917Z,54.60
2022-09-24T18:20:57.946Z,54.60
2022-09-24T18:22:59.558Z,54.50
2022-09-24T18:25:05.992Z,54.60
2022-09-24T18:27:07.612Z,54.60
2022-09-24T18:29:15.470Z,54.60
2022-09-24T18:31:18.439Z,54.60
2022-09-24T18:33:20.243Z,54.50
2022-09-24T18:35:21.907Z,54.60
2022-09-24T18:37:23.801Z,54.50
2022-09-24T18:39:25.873Z,54.60
2022-09-24T18:41:29.571Z,54.60
2022-09-24T18:43:31.545Z,54.50
2022-09-24T18:45:34.887Z,54.50
2022-09-24T18:47:38.205Z,54.40
2022-09-24T18:49:43.427Z,54.30
2022-09-24T18:51:46.508Z,54.70
2022-09-24T18:54:03.014Z,54.30
2022-09-24T18:56:08.748Z,54.20
2022-09-24T18:58:11.071Z,54.30
2022-09-24T19:00:32.977Z,54.20
2022-09-24T19:02:34.716Z,54.20
2022-09-24T19:04:36.372Z,54.20
2022-09-24T19:06:40.516Z,54.20
2022-09-24T19:08:42.127Z,54.20
2022-09-24T19:10:43.891Z,54.20
2022-09-24T19:12:45.556Z,54.20
2022-09-24T19:14:47.917Z,54.30
2022-09-24T19:16:49.501Z,54.40
2022-09-24T19:18:52.884Z,54.40
2022-09-24T19:20:57.033Z,54.20
2022-09-24T19:23:00.177Z,54.20
2022-09-24T19:25:01.919Z,54.30
2022-09-24T19:27:03.623Z,54.30
2022-09-24T19:29:05.839Z,54.20
2022-09-24T19:31:17.769Z,54.10
2022-09-24T19:33:20.102Z,54.00
2022-09-24T19:35:22.278Z,54.00
2022-09-24T19:37:24.771Z,53.90
2022-09-24T19:39:26.390Z,54.20
2022-09-24T19:41:29.069Z,53.90
2022-09-24T19:43:33.523Z,53.90
2022-09-24T19:45:36.327Z,53.90
2022-09-24T19:47:38.043Z,53.90
2022-09-24T19:49:39.634Z,54.00
2022-09-24T19:51:41.740Z,54.00
2022-09-24T19:53:44.283Z,54.10
2022-09-24T19:55:46.200Z,54.10
2022-09-24T19:57:47.792Z,53.80
2022-09-24T19:59:49.451Z,53.70
2022-09-24T20:01:52.666Z,53.80
2022-09-24T20:03:54.567Z,54.50
2022-09-24T20:05:56.188Z,54.20
2022-09-24T20:07:57.776Z,54.30
2022-09-24T20:09:59.448Z,54.20
2022-09-24T20:12:01.884Z,54.20
2022-09-24T20:14:06.518Z,54.20
2022-09-24T20:16:08.761Z,54.20
2022-09-24T20:18:12.831Z,54.20
2022-09-24T20:20:14.933Z,54.30
2022-09-24T20:22:18.121Z,54.40
2022-09-24T20:24:21.488Z,54.70
2022-09-24T20:26:43.541Z,54.60
2022-09-24T20:28:46.801Z,54.70
2022-09-24T20:30:48.574Z,54.70
2022-09-24T20:32:50.925Z,54.60
2022-09-24T20:34:53.221Z,54.60
2022-09-24T20:36:57.692Z,54.90
2022-09-24T20:38:59.797Z,54.60
2022-09-24T20:41:05.967Z,54.50
2022-09-24T20:43:08.767Z,54.60
2022-09-24T20:45:11.454Z,54.60
2022-09-24T20:47:13.887Z,54.40
2022-09-24T20:49:24.168Z,54.50
2022-09-24T20:51:28.329Z,54.30
2022-09-24T20:53:30.048Z,54.40
2022-09-24T20:55:31.701Z,54.60
2022-09-24T20:57:33.348Z,54.60
2022-09-24T20:59:35.488Z,54.80
2022-09-24T21:01:39.248Z,55.20
2022-09-24T21:03:45.871Z,55.50
2022-09-24T21:05:47.828Z,55.20
2022-09-24T21:07:49.412Z,55.30
2022-09-24T21:09:51.221Z,55.30
2022-09-24T21:11:54.267Z,55.50
2022-09-24T21:14:01.030Z,55.50
2022-09-24T21:16:04.269Z,55.70
2022-09-24T21:18:22.335Z,55.40
2022-09-24T21:20:24.637Z,55.30
2022-09-24T21:22:26.668Z,55.40
2022-09-24T21:24:31.439Z,55.30
2022-09-24T21:26:36.169Z,55.60
2022-09-24T21:28:38.552Z,55.70
2022-09-24T21:30:40.309Z,55.60
2022-09-24T21:32:42.157Z,55.60
2022-09-24T21:34:44.530Z,55.50
2022-09-24T21:36:46.466Z,55.70
2022-09-24T21:39:08.936Z,55.40
2022-09-24T21:41:10.593Z,55.80
2022-09-24T21:43:12.181Z,55.80
2022-09-24T21:45:13.956Z,55.90
2022-09-24T21:47:15.633Z,55.90
2022-09-24T21:49:18.464Z,56.00
2022-09-24T21:51:23.725Z,56.00
2022-09-24T21:53:25.353Z,56.00
2022-09-24T21:55:26.943Z,56.10
2022-09-24T21:57:28.566Z,56.00
2022-09-24T21:59:49.024Z,56.00
2022-09-24T22:01:50.661Z,56.00
2022-09-24T22:03:55.184Z,56.10
2022-09-24T22:05:59.141Z,56.10
2022-09-24T22:08:00.908Z,55.90
2022-09-24T22:10:02.583Z,56.20
2022-09-24T22:12:04.661Z,56.20
2022-09-24T22:14:06.350Z,56.00
2022-09-24T22:16:10.645Z,56.00
2022-09-24T22:18:12.277Z,56.40
2022-09-24T22:20:14.008Z,56.60
2022-09-24T22:22:15.872Z,56.40
2022-09-24T22:24:17.828Z,56.50
2022-09-24T22:26:19.569Z,56.60
2022-09-24T22:28:24.907Z,56.50
2022-09-24T22:30:26.560Z,56.60
2022-09-24T22:32:28.195Z,56.40
2022-09-24T22:34:48.492Z,56.60
2022-09-24T22:36:51.700Z,56.70
2022-09-24T22:38:54.806Z,56.50
2022-09-24T22:40:59.563Z,56.60
2022-09-24T22:43:01.227Z,56.60
2022-09-24T22:45:03.258Z,56.40
2022-09-24T22:47:04.992Z,56.50
2022-09-24T22:49:07.139Z,56.30
2022-09-24T22:51:09.728Z,56.70
2022-09-24T22:53:11.545Z,56.50
2022-09-24T22:55:13.261Z,56.40
2022-09-24T22:57:15.678Z,56.60
2022-09-24T22:59:17.283Z,56.60
2022-09-24T23:01:22.579Z,56.70
2022-09-24T23:03:24.367Z,56.70
2022-09-24T23:05:26.014Z,56.80
2022-09-24T23:07:27.668Z,56.70
2022-09-24T23:09:29.243Z,56.70
2022-09-24T23:11:32.729Z,56.70
2022-09-24T23:13:34.379Z,56.70
2022-09-24T23:15:36.026Z,56.70
2022-09-24T23:17:37.984Z,56.50
2022-09-24T23:19:49.329Z,56.50
2022-09-24T23:21:50.996Z,56.60
2022-09-24T23:23:58.291Z,56.50
2022-09-24T23:26:04.773Z,56.50
2022-09-24T23:28:06.352Z,56.50
2022-09-24T23:30:08.543Z,56.60
2022-09-24T23:32:11.146Z,56.60
2022-09-24T23:34:13.596Z,56.80
2022-09-24T23:36:15.716Z,56.70
2022-09-24T23:38:17.359Z,56.80
2022-09-24T23:40:19.258Z,56.60
2022-09-24T23:42:21.150Z,56.60
2022-09-24T23:44:22.939Z,56.60
2022-09-24T23:46:25.161Z,56.60
2022-09-24T23:48:27.037Z,56.70
2022-09-24T23:50:28.645Z,56.70
2022-09-24T23:52:30.235Z,56.60
2022-09-24T23:54:32.000Z,56.50
2022-09-24T23:56:34.007Z,56.40
2022-09-24T23:58:36.157Z,56.60
